createdAt,value
2023-02-19T00:01:00.947Z,99959.22
2023-02-19T00:02:03.169Z,99954.91
2023-02-19T00:03:05.467Z,99958.25
2023-02-19T00:04:14.788Z,99952.22
2023-02-19T00:05:17.047Z,99955.75
2023-02-19T00:06:20.640Z,99960.06
2023-02-19T00:07:22.845Z,99952.22
2023-02-19T00:08:25.190Z,99949.28
2023-02-19T00:09:27.454Z,99947.53
2023-02-19T00:10:29.677Z,99952.44
2023-02-19T00:11:34.075Z,99948.94
2023-02-19T00:12:36.277Z,99960.19
2023-02-19T00:13:41.295Z,99950.47
2023-02-19T00:14:43.543Z,99956.56
2023-02-19T00:15:45.810Z,99959.66
2023-02-19T00:16:48.877Z,99959.94
2023-02-19T00:17:51.171Z,99957.22
2023-02-19T00:18:55.053Z,99962.25
2023-02-19T00:19:57.492Z,99958.75
2023-02-19T00:20:59.762Z,99972.59
2023-02-19T00:22:01.959Z,99955.28
2023-02-19T00:23:04.145Z,99970.88
2023-02-19T00:24:08.100Z,99951.75
2023-02-19T00:25:10.360Z,99949.78
2023-02-19T00:26:18.643Z,99951.59
2023-02-19T00:27:22.647Z,99942.13
2023-02-19T00:28:24.948Z,99945.00
2023-02-19T00:29:27.833Z,99945.88
2023-02-19T00:30:30.132Z,99936.22
2023-02-19T00:31:34.692Z,99933.56
2023-02-19T00:32:37.060Z,99920.34
2023-02-19T00:33:39.293Z,99923.75
2023-02-19T00:34:41.478Z,99922.03
2023-02-19T00:35:43.707Z,99915.91
2023-02-19T00:36:45.920Z,99923.78
2023-02-19T00:37:48.226Z,99922.13
2023-02-19T00:38:51.105Z,99926.47
2023-02-19T00:39:53.390Z,99930.91
2023-02-19T00:40:55.684Z,99930.94
2023-02-19T00:42:00.752Z,99936.00
2023-02-19T00:43:02.912Z,99927.88
2023-02-19T00:44:07.444Z,99933.91
2023-02-19T00:45:09.631Z,99935.91
2023-02-19T00:46:12.015Z,99941.13
2023-02-19T00:47:14.243Z,99937.84
2023-02-19T00:48:16.414Z,99932.56
2023-02-19T00:49:23.403Z,99925.63
2023-02-19T00:50:25.899Z,99921.19
2023-02-19T00:51:31.067Z,99917.75
2023-02-19T00:52:33.282Z,99916.19
2023-02-19T00:53:35.551Z,99915.03
2023-02-19T00:54:37.760Z,99911.53
2023-02-19T00:55:39.907Z,99908.13
2023-02-19T00:56:42.572Z,99906.53
2023-02-19T00:57:44.862Z,99907.22
2023-02-19T00:58:47.382Z,99911.47
2023-02-19T00:59:49.586Z,99907.34
2023-02-19T01:00:52.851Z,99901.22
2023-02-19T01:01:55.171Z,99911.47
2023-02-19T01:02:57.504Z,99913.19
2023-02-19T01:04:01.486Z,99916.66
2023-02-19T01:05:03.894Z,99927.06
2023-02-19T01:06:07.678Z,99927.09
2023-02-19T01:07:10.188Z,99926.81
2023-02-19T01:08:12.408Z,99931.06
2023-02-19T01:09:14.716Z,99932.59
2023-02-19T01:10:17.192Z,99927.72
2023-02-19T01:11:20.234Z,99937.78
2023-02-19T01:12:24.221Z,99930.19
2023-02-19T01:13:28.166Z,99914.09
2023-02-19T01:14:32.083Z,99933.69
2023-02-19T01:15:34.652Z,99921.66
2023-02-19T01:16:37.126Z,99928.91
2023-02-19T01:17:39.386Z,99926.81
2023-02-19T01:18:42.468Z,99917.53
2023-02-19T01:19:44.654Z,99930.44
2023-02-19T01:20:46.841Z,99924.44
2023-02-19T01:21:48.988Z,99914.09
2023-02-19T01:22:51.267Z,99919.59
2023-02-19T01:23:54.587Z,99919.66
2023-02-19T01:24:56.754Z,99912.69
2023-02-19T01:25:58.964Z,99921.59
2023-02-19T01:27:01.187Z,99921.31
2023-02-19T01:28:03.518Z,99919.81
2023-02-19T01:29:06.153Z,99909.34
2023-02-19T01:30:09.675Z,99907.66
2023-02-19T01:31:17.825Z,99913.25
2023-02-19T01:32:20.173Z,99915.06
2023-02-19T01:33:22.547Z,99912.50
2023-02-19T01:34:26.946Z,99915.28
2023-02-19T01:35:29.175Z,99906.47
2023-02-19T01:36:34.183Z,99923.78
2023-02-19T01:37:37.186Z,99930.66
2023-02-19T01:38:39.378Z,99924.41
2023-02-19T01:39:41.636Z,99925.41
2023-02-19T01:40:44.344Z,99932.66
2023-02-19T01:41:46.659Z,99934.22
2023-02-19T01:42:48.902Z,99937.78
2023-02-19T01:44:28.376Z,99921.22
2023-02-19T01:45:35.431Z,99935.41
2023-02-19T01:46:40.447Z,99921.56
2023-02-19T01:47:42.697Z,99924.72
2023-02-19T01:48:44.986Z,99931.97
2023-02-19T01:49:54.859Z,99943.97
2023-02-19T01:51:05.108Z,99929.72
2023-02-19T01:52:18.660Z,99922.44
2023-02-19T01:53:25.868Z,99923.16
2023-02-19T01:54:34.755Z,99924.06
2023-02-19T01:55:38.981Z,99914.66
2023-02-19T01:56:42.744Z,99908.00
2023-02-19T01:57:48.159Z,99916.75
2023-02-19T01:58:53.219Z,99912.38
2023-02-19T02:02:17.652Z,99914.13
2023-02-19T02:03:20.955Z,99920.88
2023-02-19T02:04:23.218Z,99913.94
2023-02-19T02:05:41.484Z,99921.56
2023-02-19T02:06:52.008Z,99902.47
2023-02-19T02:08:12.743Z,99907.09
2023-02-19T02:09:34.756Z,99904.47
2023-02-19T02:10:36.993Z,99889.63
2023-02-19T02:11:42.499Z,99895.88
2023-02-19T02:12:44.722Z,99890.78
2023-02-19T02:13:46.921Z,99885.53
2023-02-19T02:14:49.132Z,99882.19
2023-02-19T02:16:14.550Z,99879.63
2023-02-19T02:17:26.578Z,99882.25
2023-02-19T02:18:46.616Z,99885.53
2023-02-19T02:20:15.836Z,99890.84
2023-02-19T02:21:35.517Z,99887.03
2023-02-19T02:23:02.600Z,99898.59
2023-02-19T02:24:11.874Z,99889.53
2023-02-19T02:25:45.369Z,99894.88
2023-02-19T02:27:21.297Z,99891.59
2023-02-19T02:29:04.144Z,99894.72
2023-02-19T02:30:14.922Z,99892.06
2023-02-19T02:31:22.981Z,99889.41
2023-02-19T02:32:32.968Z,99893.78
2023-02-19T02:33:35.118Z,99873.78
2023-02-19T02:34:56.224Z,99882.81
2023-02-19T02:36:07.187Z,99880.66
2023-02-19T02:37:13.433Z,99876.63
2023-02-19T02:38:20.161Z,99870.50
2023-02-19T02:39:26.208Z,99872.25
2023-02-19T02:40:31.354Z,99866.06
2023-02-19T02:41:34.845Z,99866.75
2023-02-19T02:42:39.940Z,99874.81
2023-02-19T02:43:46.803Z,99864.41
2023-02-19T02:45:09.502Z,99868.22
2023-02-19T02:46:22.663Z,99863.84
2023-02-19T02:47:41.570Z,99868.53
2023-02-19T02:48:55.434Z,99872.28
2023-02-19T02:50:07.734Z,99871.84
2023-02-19T02:51:33.936Z,99869.25
2023-02-19T02:53:03.688Z,99868.91
2023-02-19T02:54:36.827Z,99877.19
2023-02-19T02:55:47.236Z,99867.19
2023-02-19T02:56:50.800Z,99860.31
2023-02-19T02:57:53.478Z,99848.94
2023-02-19T02:58:58.335Z,99863.97
2023-02-19T03:00:00.651Z,99863.38
2023-02-19T03:01:37.074Z,99862.56
2023-02-19T03:02:41.919Z,99860.63
2023-02-19T03:03:47.888Z,99846.84
2023-02-19T03:05:16.376Z,99857.31
2023-02-19T03:06:22.411Z,99848.25
2023-02-19T03:07:31.361Z,99846.03
2023-02-19T03:08:50.833Z,99846.16
2023-02-19T03:09:55.019Z,99857.63
2023-02-19T03:11:24.920Z,99845.47
2023-02-19T03:12:49.505Z,99837.44
2023-02-19T03:14:20.937Z,99840.78
2023-02-19T03:15:47.637Z,99844.72
2023-02-19T03:17:14.085Z,99838.72
2023-02-19T03:18:36.826Z,99832.09
2023-02-19T03:19:44.770Z,99844.09
2023-02-19T03:20:51.585Z,99845.22
2023-02-19T03:21:59.424Z,99840.06
2023-02-19T03:23:02.234Z,99833.81
2023-02-19T03:24:26.936Z,99841.56
2023-02-19T03:25:51.604Z,99829.75
2023-02-19T03:27:04.649Z,99837.28
2023-02-19T03:28:17.493Z,99833.47
2023-02-19T03:30:47.974Z,99831.38
2023-02-19T03:31:55.075Z,99835.69
2023-02-19T03:33:10.933Z,99832.88
2023-02-19T03:34:22.791Z,99842.66
2023-02-19T03:35:30.082Z,99829.63
2023-02-19T03:36:44.027Z,99837.31
2023-02-19T03:37:58.432Z,99835.38
2023-02-19T03:39:05.824Z,99835.31
2023-02-19T03:40:08.867Z,99834.59
2023-02-19T03:41:20.529Z,99831.22
2023-02-19T03:42:36.875Z,99845.03
2023-02-19T03:44:00.638Z,99837.31
2023-02-19T03:45:17.032Z,99842.03
2023-02-19T03:46:34.931Z,99843.00
2023-02-19T03:48:04.467Z,99847.16
2023-02-19T03:49:15.404Z,99851.41
2023-02-19T03:50:24.043Z,99848.84
2023-02-19T03:51:54.179Z,99854.00
2023-02-19T03:53:02.124Z,99842.44
2023-02-19T03:54:30.604Z,99851.28
2023-02-19T03:55:44.870Z,99843.75
2023-02-19T03:56:54.050Z,99839.69
2023-02-19T03:58:04.943Z,99848.16
2023-02-19T03:59:41.267Z,99849.06
2023-02-19T04:01:14.153Z,99848.69
2023-02-19T04:02:23.732Z,99859.31
2023-02-19T04:04:12.704Z,99859.97
2023-02-19T04:05:20.682Z,99858.94
2023-02-19T04:06:27.798Z,99852.88
2023-02-19T04:07:34.807Z,99858.00
2023-02-19T04:08:39.714Z,99863.31
2023-02-19T04:09:48.933Z,99858.41
2023-02-19T04:10:55.364Z,99861.75
2023-02-19T04:12:01.988Z,99854.72
2023-02-19T04:13:11.910Z,99856.72
2023-02-19T04:14:24.744Z,99852.41
2023-02-19T04:15:31.683Z,99862.94
2023-02-19T04:16:37.159Z,99850.84
2023-02-19T04:17:43.763Z,99855.78
2023-02-19T04:18:49.361Z,99858.44
2023-02-19T04:19:54.147Z,99866.19
2023-02-19T04:20:58.039Z,99865.38
2023-02-19T04:22:01.542Z,99880.06
2023-02-19T04:23:03.781Z,99876.88
2023-02-19T04:24:38.524Z,99874.41
2023-02-19T04:25:44.078Z,99876.97
2023-02-19T04:26:46.867Z,99874.44
2023-02-19T04:27:49.282Z,99885.81
2023-02-19T04:28:51.506Z,99882.16
2023-02-19T04:29:53.811Z,99877.78
2023-02-19T04:30:56.094Z,99868.44
2023-02-19T04:31:58.327Z,99883.97
2023-02-19T04:33:00.580Z,99884.88
2023-02-19T04:34:04.200Z,99877.72
2023-02-19T04:35:06.451Z,99896.91
2023-02-19T04:36:10.834Z,99881.91
2023-02-19T04:37:13.287Z,99888.97
2023-02-19T04:38:15.640Z,99867.91
2023-02-19T04:39:17.846Z,99880.13
2023-02-19T04:40:20.184Z,99886.03
2023-02-19T04:41:22.487Z,99881.09
2023-02-19T04:42:24.672Z,99884.03
2023-02-19T04:43:26.907Z,99875.25
2023-02-19T04:44:29.167Z,99876.00
2023-02-19T04:45:31.402Z,99883.59
2023-02-19T04:46:33.885Z,99880.22
2023-02-19T04:47:36.124Z,99876.75
2023-02-19T04:48:38.438Z,99893.19
2023-02-19T04:49:40.648Z,99881.66
2023-02-19T04:50:42.883Z,99893.03
2023-02-19T04:51:45.088Z,99877.59
2023-02-19T04:52:47.298Z,99893.22
2023-02-19T04:53:49.539Z,99895.13
2023-02-19T04:54:51.800Z,99897.31
2023-02-19T04:55:54.063Z,99897.03
2023-02-19T04:56:57.425Z,99889.16
2023-02-19T04:58:00.303Z,99899.00
2023-02-19T04:59:02.780Z,99901.06
2023-02-19T05:00:05.465Z,99893.03
2023-02-19T05:01:08.911Z,99899.97
2023-02-19T05:02:11.433Z,99905.31
2023-02-19T05:03:13.658Z,99895.63
2023-02-19T05:04:15.929Z,99901.53
2023-02-19T05:05:18.132Z,99888.38
2023-02-19T05:06:20.490Z,99900.66
2023-02-19T05:07:22.800Z,99877.53
2023-02-19T05:08:25.054Z,99878.41
2023-02-19T05:09:27.325Z,99876.63
2023-02-19T05:10:29.489Z,99880.97
2023-02-19T05:11:31.739Z,99879.88
2023-02-19T05:12:33.979Z,99877.66
2023-02-19T05:13:37.064Z,99889.59
2023-02-19T05:14:39.297Z,99887.78
2023-02-19T05:15:41.570Z,99879.84
2023-02-19T05:16:43.775Z,99876.44
2023-02-19T05:17:45.990Z,99884.16
2023-02-19T05:18:48.512Z,99884.53
2023-02-19T05:19:50.687Z,99888.75
2023-02-19T05:20:52.974Z,99901.06
2023-02-19T05:21:55.185Z,99885.63
2023-02-19T05:22:57.473Z,99885.84
2023-02-19T05:23:59.634Z,99889.59
2023-02-19T05:25:01.875Z,99891.34
2023-02-19T05:26:06.563Z,99885.03
2023-02-19T05:27:08.824Z,99876.59
2023-02-19T05:28:19.713Z,99857.53
2023-02-19T05:29:21.972Z,99860.84
2023-02-19T05:30:24.180Z,99869.41
2023-02-19T05:31:26.539Z,99868.50
2023-02-19T05:32:28.841Z,99884.16
2023-02-19T05:33:31.053Z,99891.28
2023-02-19T05:34:33.207Z,99882.63
2023-02-19T05:35:40.986Z,99878.25
2023-02-19T05:36:43.205Z,99893.09
2023-02-19T05:37:45.452Z,99890.53
2023-02-19T05:38:48.267Z,99888.00
2023-02-19T05:39:50.466Z,99887.09
2023-02-19T05:40:52.640Z,99887.84
2023-02-19T05:41:54.925Z,99880.78
2023-02-19T05:42:57.107Z,99884.34
2023-02-19T05:43:59.354Z,99878.25
2023-02-19T05:45:01.545Z,99889.56
2023-02-19T05:46:03.822Z,99890.38
2023-02-19T05:47:06.025Z,99887.00
2023-02-19T05:48:08.651Z,99871.31
2023-02-19T05:49:10.886Z,99884.28
2023-02-19T05:50:13.175Z,99890.91
2023-02-19T05:51:18.567Z,99892.66
2023-02-19T05:52:20.744Z,99879.09
2023-02-19T05:53:22.938Z,99882.63
2023-02-19T05:54:25.413Z,99883.41
2023-02-19T05:55:28.695Z,99885.94
2023-02-19T05:56:36.393Z,99878.97
2023-02-19T05:57:46.915Z,99887.78
2023-02-19T05:58:49.701Z,99897.13
2023-02-19T05:59:51.924Z,99894.38
2023-02-19T06:00:54.901Z,99891.94
2023-02-19T06:01:58.196Z,99901.34
2023-02-19T06:03:01.355Z,99908.06
2023-02-19T06:04:03.803Z,99899.78
2023-02-19T06:05:06.572Z,99902.44
2023-02-19T06:06:12.960Z,99899.69
2023-02-19T06:07:15.178Z,99900.56
2023-02-19T06:08:17.416Z,99914.56
2023-02-19T06:09:19.613Z,99896.22
2023-02-19T06:10:22.545Z,99903.84
2023-02-19T06:11:24.977Z,99896.00
2023-02-19T06:12:27.525Z,99902.06
2023-02-19T06:13:29.749Z,99912.63
2023-02-19T06:14:31.946Z,99914.25
2023-02-19T06:15:34.148Z,99914.94
2023-02-19T06:16:36.431Z,99917.63
2023-02-19T06:17:38.694Z,99920.13
2023-02-19T06:18:41.205Z,99915.84
2023-02-19T06:19:43.863Z,99936.91
2023-02-19T06:20:46.080Z,99926.34
2023-02-19T06:21:50.264Z,99938.63
2023-02-19T06:22:52.445Z,99928.09
2023-02-19T06:23:54.795Z,99936.56
2023-02-19T06:24:56.985Z,99930.56
2023-02-19T06:26:14.372Z,99925.69
2023-02-19T06:27:16.594Z,99936.28
2023-02-19T06:28:18.979Z,99928.94
2023-02-19T06:29:21.126Z,99925.47
2023-02-19T06:30:23.402Z,99931.63
2023-02-19T06:31:25.942Z,99929.16
2023-02-19T06:32:28.230Z,99934.50
2023-02-19T06:33:30.501Z,99940.41
2023-02-19T06:34:33.633Z,99940.47
2023-02-19T06:35:36.285Z,99955.31
2023-02-19T06:36:38.494Z,99948.22
2023-02-19T06:37:40.746Z,99965.59
2023-02-19T06:38:43.512Z,99950.75
2023-02-19T06:39:45.751Z,99958.47
2023-02-19T06:40:47.886Z,99963.94
2023-02-19T06:41:50.469Z,99967.25
2023-02-19T06:42:52.731Z,99973.63
2023-02-19T06:43:55.142Z,99972.56
2023-02-19T06:44:57.341Z,99970.19
2023-02-19T06:46:00.671Z,99963.84
2023-02-19T06:47:02.921Z,99972.63
2023-02-19T06:48:05.573Z,99976.28
2023-02-19T06:49:07.787Z,99969.38
2023-02-19T06:50:10.038Z,99972.44
2023-02-19T06:51:23.750Z,99971.72
2023-02-19T06:52:27.364Z,99967.28
2023-02-19T06:53:29.782Z,99970.91
2023-02-19T06:54:33.319Z,99965.63
2023-02-19T06:55:35.639Z,99973.41
2023-02-19T06:56:42.052Z,99975.13
2023-02-19T06:57:44.316Z,99977.88
2023-02-19T06:58:46.502Z,99980.34
2023-02-19T06:59:48.704Z,99965.34
2023-02-19T07:00:50.941Z,99986.13
2023-02-19T07:01:53.170Z,99981.72
2023-02-19T07:02:56.640Z,99976.00
2023-02-19T07:03:59.034Z,99981.09
2023-02-19T07:05:01.198Z,99992.38
2023-02-19T07:06:03.551Z,99998.06
2023-02-19T07:07:05.863Z,100002.25
2023-02-19T07:08:08.063Z,100001.31
2023-02-19T07:09:11.139Z,100009.13
2023-02-19T07:10:13.322Z,100008.00
2023-02-19T07:11:15.669Z,99996.41
2023-02-19T07:12:17.934Z,100003.44
2023-02-19T07:13:20.190Z,100001.16
2023-02-19T07:14:22.620Z,99987.09
2023-02-19T07:15:24.819Z,99995.97
2023-02-19T07:16:28.190Z,100017.84
2023-02-19T07:17:30.453Z,100006.75
2023-02-19T07:18:32.806Z,100009.03
2023-02-19T07:19:35.049Z,100012.72
2023-02-19T07:20:37.694Z,100011.97
2023-02-19T07:21:40.104Z,100006.53
2023-02-19T07:22:42.334Z,100025.81
2023-02-19T07:23:45.682Z,100012.44
2023-02-19T07:24:48.068Z,100027.31
2023-02-19T07:25:50.299Z,100011.00
2023-02-19T07:26:52.531Z,100017.72
2023-02-19T07:27:54.702Z,100021.22
2023-02-19T07:28:56.880Z,100025.47
2023-02-19T07:29:59.495Z,100020.34
2023-02-19T07:31:03.684Z,100018.50
2023-02-19T07:32:05.988Z,100017.53
2023-02-19T07:33:10.448Z,100018.50
2023-02-19T07:34:12.877Z,100022.94
2023-02-19T07:35:15.096Z,100019.34
2023-02-19T07:36:18.475Z,100013.38
2023-02-19T07:37:20.762Z,99999.25
2023-02-19T07:38:25.105Z,100007.25
2023-02-19T07:39:27.338Z,100017.84
2023-02-19T07:40:29.603Z,100011.00
2023-02-19T07:41:31.932Z,100011.94
2023-02-19T07:42:34.191Z,100012.47
2023-02-19T07:43:38.135Z,100010.81
2023-02-19T07:44:40.328Z,100010.00
2023-02-19T07:45:42.509Z,100011.47
2023-02-19T07:46:44.974Z,100015.22
2023-02-19T07:47:47.122Z,100029.81
2023-02-19T07:48:49.342Z,100020.50
2023-02-19T07:49:51.524Z,100023.13
2023-02-19T07:50:59.459Z,100023.97
2023-02-19T07:52:01.690Z,100019.38
2023-02-19T07:53:04.003Z,100013.44
2023-02-19T07:54:06.378Z,100015.47
2023-02-19T07:55:08.565Z,100010.22
2023-02-19T07:56:12.412Z,100011.94
2023-02-19T07:57:14.704Z,100014.59
2023-02-19T07:58:17.110Z,100004.75
2023-02-19T07:59:21.481Z,100017.66
2023-02-19T08:00:23.875Z,100015.22
2023-02-19T08:01:44.936Z,100019.50
2023-02-19T08:03:02.908Z,100020.47
2023-02-19T08:04:05.223Z,100021.25
2023-02-19T08:05:07.566Z,100026.31
2023-02-19T08:06:11.129Z,100019.50
2023-02-19T08:07:13.461Z,100022.16
2023-02-19T08:08:16.322Z,100030.94
2023-02-19T08:09:18.524Z,100023.13
2023-02-19T08:10:39.601Z,100037.03
2023-02-19T08:12:00.510Z,100032.78
2023-02-19T08:13:22.149Z,100029.09
2023-02-19T08:14:26.090Z,100029.09
2023-02-19T08:15:28.364Z,100030.06
2023-02-19T08:16:42.566Z,100031.00
2023-02-19T08:17:45.675Z,100028.50
2023-02-19T08:18:48.730Z,100036.97
2023-02-19T08:19:50.951Z,100035.88
2023-02-19T08:20:55.338Z,100046.09
2023-02-19T08:21:57.738Z,100040.28
2023-02-19T08:22:59.951Z,100039.19
2023-02-19T08:24:02.228Z,100036.50
2023-02-19T08:25:04.599Z,100029.41
2023-02-19T08:26:07.354Z,100038.16
2023-02-19T08:27:09.546Z,100039.94
2023-02-19T08:28:11.791Z,100042.50
2023-02-19T08:29:14.044Z,100046.72
2023-02-19T08:30:16.371Z,100033.75
2023-02-19T08:31:18.687Z,100043.03
2023-02-19T08:32:21.101Z,100056.28
2023-02-19T08:33:23.393Z,100036.25
2023-02-19T08:34:25.654Z,100058.13
2023-02-19T08:35:28.697Z,100045.81
2023-02-19T08:36:30.893Z,100057.94
2023-02-19T08:37:33.169Z,100052.63
2023-02-19T08:38:36.539Z,100064.94
2023-02-19T08:39:38.706Z,100066.75
2023-02-19T08:40:41.021Z,100065.72
2023-02-19T08:41:43.275Z,100064.19
2023-02-19T08:42:45.424Z,100073.84
2023-02-19T08:43:47.632Z,100068.22
2023-02-19T08:44:49.869Z,100073.22
2023-02-19T08:45:53.915Z,100074.00
2023-02-19T08:46:56.229Z,100068.13
2023-02-19T08:47:58.888Z,100070.66
2023-02-19T08:49:01.071Z,100081.34
2023-02-19T08:50:04.979Z,100075.03
2023-02-19T08:51:10.480Z,100073.28
2023-02-19T08:52:12.956Z,100071.72
2023-02-19T08:53:15.126Z,100083.63
2023-02-19T08:54:17.301Z,100089.78
2023-02-19T08:55:19.592Z,100086.25
2023-02-19T08:56:22.032Z,100079.84
2023-02-19T08:57:24.967Z,100077.47
2023-02-19T08:58:27.154Z,100077.63
2023-02-19T08:59:29.472Z,100081.03
2023-02-19T09:00:32.134Z,100085.53
2023-02-19T09:01:34.413Z,100094.72
2023-02-19T09:02:36.772Z,100091.31
2023-02-19T09:03:39.286Z,100073.66
2023-02-19T09:04:41.460Z,100085.75
2023-02-19T09:05:46.735Z,100093.50
2023-02-19T09:06:48.939Z,100090.13
2023-02-19T09:07:51.152Z,100077.06
2023-02-19T09:08:53.342Z,100088.41
2023-02-19T09:09:55.546Z,100078.69
2023-02-19T09:11:06.971Z,100078.75
2023-02-19T09:12:11.653Z,100066.38
2023-02-19T09:13:13.906Z,100076.91
2023-02-19T09:14:16.143Z,100065.88
2023-02-19T09:15:18.424Z,100077.75
2023-02-19T09:16:20.687Z,100071.50
2023-02-19T09:17:22.870Z,100081.78
2023-02-19T09:18:25.823Z,100075.34
2023-02-19T09:19:28.470Z,100086.88
2023-02-19T09:20:30.636Z,100084.47
2023-02-19T09:21:32.901Z,100076.94
2023-02-19T09:22:35.107Z,100079.38
2023-02-19T09:23:37.316Z,100066.34
2023-02-19T09:24:39.536Z,100079.97
2023-02-19T09:25:41.736Z,100076.31
2023-02-19T09:26:43.916Z,100077.41
2023-02-19T09:27:46.090Z,100086.97
2023-02-19T09:28:48.380Z,100079.94
2023-02-19T09:29:50.529Z,100085.00
2023-02-19T09:30:52.715Z,100087.09
2023-02-19T09:31:59.261Z,100088.81
2023-02-19T09:33:01.545Z,100084.47
2023-02-19T09:34:05.483Z,100084.38
2023-02-19T09:35:07.766Z,100100.16
2023-02-19T09:36:10.515Z,100099.97
2023-02-19T09:37:12.687Z,100102.63
2023-02-19T09:38:14.934Z,100101.63
2023-02-19T09:39:17.157Z,100092.94
2023-02-19T09:40:22.344Z,100109.03
2023-02-19T09:41:31.717Z,100114.50
2023-02-19T09:42:33.934Z,100120.97
2023-02-19T09:43:37.412Z,100125.19
2023-02-19T09:44:43.515Z,100130.22
2023-02-19T09:45:46.293Z,100133.19
2023-02-19T09:46:51.487Z,100119.59
2023-02-19T09:47:57.055Z,100118.09
2023-02-19T09:49:05.547Z,100121.81
2023-02-19T09:50:10.051Z,100122.63
2023-02-19T09:51:13.905Z,100122.56
2023-02-19T09:52:35.261Z,100126.72
2023-02-19T09:53:44.162Z,100135.97
2023-02-19T09:54:47.255Z,100114.50
2023-02-19T09:55:50.216Z,100110.66
2023-02-19T09:56:55.426Z,100117.84
2023-02-19T09:58:02.317Z,100120.94
2023-02-19T09:59:05.956Z,100126.44
2023-02-19T10:00:22.609Z,100125.69
2023-02-19T10:01:30.547Z,100115.41
2023-02-19T10:02:33.179Z,100133.13
2023-02-19T10:03:40.650Z,100136.97
2023-02-19T10:04:45.011Z,100135.19
2023-02-19T10:05:47.970Z,100138.56
2023-02-19T10:06:51.479Z,100139.47
2023-02-19T10:07:55.382Z,100142.44
2023-02-19T10:09:20.792Z,100150.94
2023-02-19T10:10:30.691Z,100148.22
2023-02-19T10:11:32.959Z,100158.13
2023-02-19T10:12:35.222Z,100160.13
2023-02-19T10:13:55.734Z,100167.09
2023-02-19T10:15:05.799Z,100172.75
2023-02-19T10:16:15.951Z,100159.88
2023-02-19T10:17:24.833Z,100167.06
2023-02-19T10:18:32.353Z,100180.06
2023-02-19T10:19:35.993Z,100170.13
2023-02-19T10:20:38.894Z,100164.16
2023-02-19T10:21:41.943Z,100179.56
2023-02-19T10:22:44.641Z,100175.59
2023-02-19T10:23:50.896Z,100170.25
2023-02-19T10:24:54.759Z,100166.94
2023-02-19T10:25:58.990Z,100167.72
2023-02-19T10:27:01.183Z,100166.34
2023-02-19T10:28:04.667Z,100165.47
2023-02-19T10:29:06.895Z,100159.06
2023-02-19T10:30:31.295Z,100165.53
2023-02-19T10:31:34.002Z,100160.69
2023-02-19T10:32:36.313Z,100155.78
2023-02-19T10:33:52.428Z,100157.56
2023-02-19T10:35:15.396Z,100155.84
2023-02-19T10:36:36.182Z,100148.81
2023-02-19T10:37:49.905Z,100153.47
2023-02-19T10:38:53.271Z,100150.22
2023-02-19T10:39:56.252Z,100167.84
2023-02-19T10:41:20.922Z,100169.84
2023-02-19T10:42:23.382Z,100170.22
2023-02-19T10:43:33.089Z,100175.28
2023-02-19T10:44:42.571Z,100173.63
2023-02-19T10:45:50.223Z,100160.47
2023-02-19T10:46:55.297Z,100185.72
2023-02-19T10:47:57.980Z,100182.50
2023-02-19T10:49:18.748Z,100176.44
2023-02-19T10:50:31.141Z,100187.03
2023-02-19T10:51:37.674Z,100187.50
2023-02-19T10:52:40.021Z,100181.63
2023-02-19T10:53:48.020Z,100182.00
2023-02-19T10:54:57.292Z,100183.72
2023-02-19T10:56:23.532Z,100181.69
2023-02-19T10:57:34.161Z,100173.34
2023-02-19T10:58:37.861Z,100174.69
2023-02-19T10:59:49.849Z,100179.97
2023-02-19T11:01:16.859Z,100176.16
2023-02-19T11:02:21.363Z,100186.19
2023-02-19T11:03:23.968Z,100181.84
2023-02-19T11:04:34.046Z,100186.06
2023-02-19T11:05:38.330Z,100180.19
2023-02-19T11:06:40.716Z,100178.16
2023-02-19T11:07:52.081Z,100189.66
2023-02-19T11:08:58.329Z,100192.13
2023-02-19T11:10:01.238Z,100185.13
2023-02-19T11:11:03.493Z,100172.19
2023-02-19T11:12:08.428Z,100184.63
2023-02-19T11:13:19.404Z,100179.44
2023-02-19T11:14:24.481Z,100186.66
2023-02-19T11:15:32.794Z,100194.84
2023-02-19T11:16:41.167Z,100185.81
2023-02-19T11:17:43.528Z,100185.25
2023-02-19T11:18:57.018Z,100180.63
2023-02-19T11:20:16.521Z,100178.03
2023-02-19T11:21:33.479Z,100179.75
2023-02-19T11:22:39.041Z,100170.63
2023-02-19T11:23:45.913Z,100165.38
2023-02-19T11:24:52.571Z,100154.66
2023-02-19T11:26:00.554Z,100172.81
2023-02-19T11:27:06.581Z,100175.69
2023-02-19T11:28:26.748Z,100187.72
2023-02-19T11:29:34.560Z,100185.63
2023-02-19T11:30:41.084Z,100185.63
2023-02-19T11:31:43.516Z,100178.88
2023-02-19T11:32:45.797Z,100186.31
2023-02-19T11:34:29.142Z,100191.66
2023-02-19T11:35:31.364Z,100207.09
2023-02-19T11:36:37.617Z,100194.91
2023-02-19T11:37:59.415Z,100195.63
2023-02-19T11:39:26.336Z,100187.75
2023-02-19T11:40:39.403Z,100194.06
2023-02-19T11:42:12.372Z,100207.72
2023-02-19T11:43:51.798Z,100206.69
2023-02-19T11:45:12.032Z,100210.72
2023-02-19T11:46:30.668Z,100222.31
2023-02-19T11:47:54.432Z,100213.94
2023-02-19T11:49:14.891Z,100221.28
2023-02-19T11:50:27.180Z,100228.06
2023-02-19T11:51:51.472Z,100227.78
2023-02-19T11:53:03.428Z,100223.22
2023-02-19T11:54:16.845Z,100223.09
2023-02-19T11:55:51.328Z,100225.28
2023-02-19T11:57:12.959Z,100218.09
2023-02-19T11:58:27.307Z,100227.91
2023-02-19T11:59:44.846Z,100224.94
2023-02-19T12:01:25.634Z,100224.84
2023-02-19T12:02:56.084Z,100224.34
2023-02-19T12:04:16.751Z,100214.81
2023-02-19T12:05:22.909Z,100215.38
2023-02-19T12:07:09.972Z,100211.84
2023-02-19T12:08:39.801Z,100203.91
2023-02-19T12:09:57.513Z,100206.34
2023-02-19T12:11:14.395Z,100201.72
2023-02-19T12:12:22.409Z,100198.53
2023-02-19T12:13:53.362Z,100199.78
2023-02-19T12:15:01.110Z,100197.53
2023-02-19T12:16:31.024Z,100187.56
2023-02-19T12:17:48.019Z,100178.28
2023-02-19T12:19:05.156Z,100196.94
2023-02-19T12:20:30.153Z,100190.53
2023-02-19T12:21:55.465Z,100191.78
2023-02-19T12:23:18.660Z,100192.22
2023-02-19T12:24:57.576Z,100196.00
2023-02-19T12:26:21.915Z,100195.41
2023-02-19T12:27:59.034Z,100194.31
2023-02-19T12:29:32.468Z,100205.81
2023-02-19T12:30:47.411Z,100201.06
2023-02-19T12:32:09.556Z,100200.00
2023-02-19T12:33:33.679Z,100193.78
2023-02-19T12:34:51.924Z,100186.28
2023-02-19T12:36:06.463Z,100187.59
2023-02-19T12:37:25.035Z,100186.00
2023-02-19T12:38:44.047Z,100203.00
2023-02-19T12:39:52.001Z,100182.91
2023-02-19T12:41:22.061Z,100188.00
2023-02-19T12:42:51.038Z,100184.66
2023-02-19T12:44:00.261Z,100184.69
2023-02-19T12:45:24.566Z,100203.56
2023-02-19T12:46:35.223Z,100198.69
2023-02-19T12:47:42.071Z,100198.66
2023-02-19T12:49:14.623Z,100188.59
2023-02-19T12:50:24.379Z,100198.44
2023-02-19T12:51:39.446Z,100197.97
2023-02-19T12:52:46.970Z,100198.59
2023-02-19T12:54:14.998Z,100202.84
2023-02-19T12:55:25.413Z,100209.28
2023-02-19T12:56:44.168Z,100205.72
2023-02-19T12:57:47.356Z,100202.78
2023-02-19T12:58:58.854Z,100196.84
2023-02-19T13:00:23.703Z,100196.16
2023-02-19T13:01:30.451Z,100197.78
2023-02-19T13:02:48.607Z,100202.03
2023-02-19T13:04:04.597Z,100205.00
2023-02-19T13:05:19.326Z,100202.81
2023-02-19T13:06:33.333Z,100216.59